createdAt,value
2022-09-25T00:00:03.451Z,100.00
2022-09-25T00:05:25.187Z,100.00
2022-09-25T00:10:50.520Z,100.00
2022-09-25T00:16:15.887Z,100.00
2022-09-25T00:21:38.314Z,100.00
2022-09-25T00:27:01.134Z,100.00
2022-09-25T00:32:23.063Z,100.00
2022-09-25T00:37:44.799Z,100.00
2022-09-25T00:43:13.990Z,100.00
2022-09-25T00:48:36.708Z,100.00
2022-09-25T00:54:01.252Z,100.00
2022-09-25T00:59:29.574Z,100.00
2022-09-25T01:04:51.691Z,100.00
2022-09-25T01:10:14.312Z,100.00
2022-09-25T01:15:49.036Z,100.00
2022-09-25T01:21:33.069Z,100.00
2022-09-25T01:27:03.850Z,100.00
2022-09-25T01:33:07.850Z,100.00
2022-09-25T01:38:35.671Z,100.00
2022-09-25T01:44:02.971Z,100.00
2022-09-25T01:49:30.005Z,100.00
2022-09-25T01:54:56.630Z,100.00
2022-09-25T02:00:21.875Z,100.00
2022-09-25T02:05:52.165Z,100.00
2022-09-25T02:11:14.306Z,100.00
2022-09-25T02:16:39.050Z,100.00
2022-09-25T02:22:23.386Z,100.00
2022-09-25T02:27:46.116Z,100.00
2022-09-25T02:33:07.854Z,100.00
2022-09-25T02:38:32.780Z,100.00
2022-09-25T02:44:05.687Z,100.00
2022-09-25T02:49:52.058Z,100.00
2022-09-25T02:55:32.493Z,100.00
2022-09-25T03:00:56.729Z,100.00
2022-09-25T03:06:19.408Z,100.00
2022-09-25T03:11:42.197Z,100.00
2022-09-25T03:17:06.687Z,100.00
2022-09-25T03:22:28.421Z,100.00
2022-09-25T03:27:50.136Z,100.00
2022-09-25T03:33:13.011Z,100.00
2022-09-25T03:38:35.167Z,100.00
2022-09-25T03:43:57.722Z,100.00
2022-09-25T03:49:19.446Z,100.00
2022-09-25T03:54:41.333Z,100.00
2022-09-25T04:00:04.145Z,100.00
2022-09-25T04:05:25.993Z,100.00
2022-09-25T04:10:47.969Z,100.00
2022-09-25T04:16:10.794Z,100.00
2022-09-25T04:21:32.877Z,100.00
2022-09-25T04:26:54.707Z,100.00
2022-09-25T04:32:35.632Z,100.00
2022-09-25T04:37:57.334Z,100.00
2022-09-25T04:43:19.036Z,100.00
2022-09-25T04:48:45.109Z,100.00
2022-09-25T04:54:06.920Z,100.00
2022-09-25T04:59:29.192Z,100.00
2022-09-25T05:04:50.970Z,100.00
2022-09-25T05:10:13.494Z,100.00
2022-09-25T05:15:36.151Z,100.00
2022-09-25T05:20:57.950Z,100.00
2022-09-25T05:26:22.532Z,100.00
2022-09-25T05:31:47.067Z,100.00
2022-09-25T05:37:08.971Z,100.00
2022-09-25T05:42:31.037Z,100.00
2022-09-25T05:48:04.352Z,100.00
2022-09-25T05:53:26.947Z,100.00
2022-09-25T05:58:49.221Z,100.00
2022-09-25T06:04:10.897Z,100.00
2022-09-25T06:09:32.822Z,100.00
2022-09-25T06:14:54.534Z,100.00
2022-09-25T06:20:16.651Z,100.00
2022-09-25T06:25:38.422Z,100.00
2022-09-25T06:31:01.463Z,100.00
2022-09-25T06:36:23.310Z,100.00
2022-09-25T06:41:45.338Z,100.00
2022-09-25T06:47:07.014Z,100.00
2022-09-25T06:52:28.792Z,100.00
2022-09-25T06:57:50.493Z,100.00
2022-09-25T07:03:30.688Z,100.00
2022-09-25T07:08:52.940Z,100.00
2022-09-25T07:14:14.681Z,100.00
2022-09-25T07:19:36.411Z,100.00
2022-09-25T07:24:58.170Z,100.00
2022-09-25T07:30:19.938Z,100.00
2022-09-25T07:35:41.775Z,100.00
2022-09-25T07:41:06.227Z,100.00
2022-09-25T07:46:28.562Z,100.00
2022-09-25T07:51:50.273Z,100.00
2022-09-25T07:57:13.213Z,100.00
2022-09-25T08:02:35.461Z,100.00
2022-09-25T08:07:57.194Z,100.00
2022-09-25T08:13:20.987Z,100.00
2022-09-25T08:18:46.120Z,100.00
2022-09-25T08:24:08.083Z,100.00
2022-09-25T08:29:30.896Z,100.00
2022-09-25T08:34:52.939Z,100.00
2022-09-25T08:40:30.899Z,99.44
2022-09-25T08:46:14.255Z,99.87
2022-09-25T08:51:43.214Z,100.00
2022-09-25T08:57:29.497Z,99.69
2022-09-25T09:02:56.118Z,99.63
2022-09-25T09:08:25.270Z,99.75
2022-09-25T09:14:13.083Z,98.06
2022-09-25T09:19:34.873Z,98.08
2022-09-25T09:25:15.432Z,98.13
2022-09-25T09:30:49.150Z,95.99
2022-09-25T09:36:38.101Z,94.08
2022-09-25T09:42:27.994Z,94.88
2022-09-25T09:48:15.302Z,90.82
2022-09-25T09:53:41.161Z,89.18
2022-09-25T09:59:12.718Z,92.70
2022-09-25T10:04:37.857Z,93.71
2022-09-25T10:09:59.999Z,93.74
2022-09-25T10:15:30.092Z,92.40
2022-09-25T10:20:59.146Z,92.05
2022-09-25T10:26:35.779Z,91.11
2022-09-25T10:32:04.163Z,87.12
2022-09-25T10:37:34.794Z,86.53
2022-09-25T10:43:11.682Z,90.22
2022-09-25T10:48:54.296Z,90.06
2022-09-25T10:54:16.544Z,89.52
2022-09-25T10:59:38.393Z,89.03
2022-09-25T11:05:00.349Z,89.89
2022-09-25T11:10:43.439Z,95.30
2022-09-25T11:16:10.808Z,97.13
2022-09-25T11:21:56.918Z,98.79
2022-09-25T11:27:36.609Z,96.82
2022-09-25T11:33:29.518Z,97.40
2022-09-25T11:39:14.779Z,99.48
2022-09-25T11:44:54.348Z,99.29
2022-09-25T11:50:17.973Z,99.06
2022-09-25T11:55:55.687Z,98.90
2022-09-25T12:01:34.973Z,99.08
2022-09-25T12:07:20.102Z,98.50
2022-09-25T12:12:53.771Z,99.77
2022-09-25T12:18:15.447Z,100.00
2022-09-25T12:24:32.671Z,99.20
2022-09-25T12:30:20.279Z,95.96
2022-09-25T12:36:04.125Z,92.23
2022-09-25T12:41:47.367Z,90.98
2022-09-25T12:47:26.303Z,88.40
2022-09-25T12:53:05.538Z,86.05
2022-09-25T12:58:50.591Z,83.92
2022-09-25T13:04:34.505Z,83.21
2022-09-25T13:09:56.246Z,82.90
2022-09-25T13:15:23.511Z,82.58
2022-09-25T13:20:52.492Z,84.45
2022-09-25T13:26:18.992Z,84.95
2022-09-25T13:31:44.857Z,82.19
2022-09-25T13:37:10.227Z,83.31
2022-09-25T13:42:42.065Z,83.47
2022-09-25T13:48:08.256Z,81.22
2022-09-25T13:53:51.960Z,81.66
2022-09-25T13:59:14.929Z,81.60
2022-09-25T14:04:38.905Z,81.57
2022-09-25T14:10:02.210Z,80.30
2022-09-25T14:15:35.472Z,79.93
2022-09-25T14:21:00.165Z,79.49
2022-09-25T14:26:28.806Z,78.59
2022-09-25T14:31:59.418Z,80.49
2022-09-25T14:37:36.164Z,79.64
2022-09-25T14:43:15.812Z,80.94
2022-09-25T14:48:54.324Z,81.36
2022-09-25T14:54:20.429Z,79.40
2022-09-25T14:59:50.989Z,77.77
2022-09-25T15:05:28.762Z,77.77
2022-09-25T15:11:02.787Z,77.71
2022-09-25T15:16:45.617Z,74.38
2022-09-25T15:22:21.623Z,75.28
2022-09-25T15:27:43.535Z,76.83
2022-09-25T15:33:05.213Z,77.01
2022-09-25T15:38:31.070Z,76.72
2022-09-25T15:44:17.463Z,74.84
2022-09-25T15:49:42.771Z,75.25
2022-09-25T15:55:14.570Z,75.96
2022-09-25T16:00:54.837Z,76.42
2022-09-25T16:06:17.239Z,77.36
2022-09-25T16:11:39.078Z,79.18
2022-09-25T16:17:00.762Z,79.37
2022-09-25T16:22:23.808Z,78.96
2022-09-25T16:27:46.862Z,81.21
2022-09-25T16:33:23.697Z,80.87
2022-09-25T16:39:12.917Z,79.73
2022-09-25T16:44:39.784Z,80.58
2022-09-25T16:50:01.478Z,81.65
2022-09-25T16:55:27.284Z,81.28
2022-09-25T17:00:50.074Z,82.19
2022-09-25T17:06:11.818Z,81.60
2022-09-25T17:11:34.468Z,82.36
2022-09-25T17:16:57.374Z,82.15
2022-09-25T17:22:19.038Z,82.06
2022-09-25T17:27:40.766Z,82.66
2022-09-25T17:33:05.561Z,83.60
2022-09-25T17:38:27.456Z,85.48
2022-09-25T17:43:49.288Z,86.57
2022-09-25T17:49:11.513Z,86.51
2022-09-25T17:54:33.309Z,86.34
2022-09-25T17:59:55.599Z,86.26
2022-09-25T18:05:18.771Z,85.99
2022-09-25T18:10:41.243Z,87.07
2022-09-25T18:16:04.233Z,86.43
2022-09-25T18:21:44.706Z,86.75
2022-09-25T18:27:06.539Z,86.43
2022-09-25T18:32:28.295Z,86.56
2022-09-25T18:37:50.418Z,87.40
2022-09-25T18:43:12.116Z,88.77
2022-09-25T18:48:35.477Z,90.08
2022-09-25T18:53:57.223Z,89.14
2022-09-25T18:59:18.982Z,89.40
2022-09-25T19:04:40.858Z,89.40
2022-09-25T19:10:07.725Z,89.64
2022-09-25T19:15:29.664Z,89.36
2022-09-25T19:20:54.606Z,89.32
2022-09-25T19:26:22.217Z,88.80
2022-09-25T19:31:45.125Z,89.70
2022-09-25T19:37:07.324Z,89.20
2022-09-25T19:42:33.417Z,89.45
2022-09-25T19:47:55.303Z,89.52
2022-09-25T19:53:18.912Z,89.93
2022-09-25T19:58:40.873Z,89.89
2022-09-25T20:04:06.623Z,90.34
2022-09-25T20:09:29.950Z,91.18
2022-09-25T20:14:51.919Z,91.99
2022-09-25T20:20:14.285Z,92.53
2022-09-25T20:25:37.181Z,91.90
2022-09-25T20:31:03.450Z,92.05
2022-09-25T20:36:25.454Z,91.61
2022-09-25T20:41:47.228Z,91.96
2022-09-25T20:47:09.087Z,91.39
2022-09-25T20:52:33.858Z,90.65
2022-09-25T20:57:55.569Z,90.58
2022-09-25T21:03:17.355Z,90.56
2022-09-25T21:08:39.183Z,90.45
2022-09-25T21:14:03.288Z,88.97
2022-09-25T21:19:25.453Z,89.84
2022-09-25T21:24:47.144Z,89.32
2022-09-25T21:30:09.405Z,88.91
2022-09-25T21:35:31.463Z,88.62
2022-09-25T21:41:01.879Z,87.28
2022-09-25T21:46:24.871Z,86.77
2022-09-25T21:51:48.203Z,86.95
2022-09-25T21:57:09.859Z,88.19
2022-09-25T22:02:31.619Z,88.85
2022-09-25T22:07:53.371Z,89.08
2022-09-25T22:13:15.031Z,89.09
2022-09-25T22:18:41.962Z,88.72
2022-09-25T22:24:04.803Z,91.24
2022-09-25T22:29:26.544Z,90.15
2022-09-25T22:34:48.246Z,90.29
2022-09-25T22:40:10.106Z,90.20
2022-09-25T22:45:32.537Z,90.37
2022-09-25T22:50:55.674Z,90.74
2022-09-25T22:56:23.001Z,90.82
2022-09-25T23:01:53.919Z,89.25
2022-09-25T23:07:15.789Z,89.50
2022-09-25T23:12:37.479Z,88.26
2022-09-25T23:17:59.270Z,89.58
2022-09-25T23:23:21.555Z,90.78
2022-09-25T23:28:43.230Z,91.40
2022-09-25T23:34:05.085Z,91.70
2022-09-25T23:39:27.143Z,92.85
2022-09-25T23:44:49.002Z,93.43
2022-09-25T23:50:10.719Z,94.45
2022-09-25T23:55:33.329Z,94.49
